Time;durP1;ratioP1;P1;durP2;ratioP2;P2;SDS_P1;SDS_P2;PMS_P1;PMS_P2;Temp;Humidity;BMP_temperature;BMP_pressure;BME280_temperature;BME280_humidity;BME280_pressure;Samples;Min_cycle;Max_cycle;Signal;HPM_P1;HPM_P2
2023/06/24 00:01:44;;;;;;;17.17;11.07;;;;;;;24.08;59.74;94652.22;4211624;28;20044;-58
2023/06/24 00:03:46;;;;;;;14.25;10.30;;;;;;;24.07;59.74;94654.09;4205592;28;20079;-58
2023/06/24 00:05:49;;;;;;;15.63;11.05;;;;;;;24.06;59.71;94655.13;4208562;28;20044;-56
2023/06/24 00:07:51;;;;;;;15.23;11.15;;;;;;;24.08;59.59;94654.91;4210025;28;20044;-52
2023/06/24 00:09:52;;;;;;;15.60;11.45;;;;;;;24.08;59.63;94653.03;4211756;28;20058;-56
2023/06/24 00:11:55;;;;;;;14.00;11.00;;;;;;;24.09;59.61;94649.31;4210161;28;20474;-57
2023/06/24 00:13:57;;;;;;;14.07;11.00;;;;;;;24.09;59.33;94643.97;4210530;28;20176;-55
2023/06/24 00:15:58;;;;;;;15.73;10.38;;;;;;;24.11;59.38;94646.38;4209909;28;20083;-56
2023/06/24 00:18:05;;;;;;;15.65;11.18;;;;;;;24.09;59.13;94649.31;4209865;28;20127;-55
2023/06/24 00:20:09;;;;;;;15.10;10.35;;;;;;;24.07;58.99;94648.75;4211027;28;20102;-57
2023/06/24 00:22:11;;;;;;;;;;;;;;;24.05;58.94;94644.69;4210598;28;20497;-57
2023/06/24 00:24:17;;;;;;;15.00;10.50;;;;;;;24.05;59.06;94645.50;4211071;28;19920;-55
2023/06/24 00:26:18;;;;;;;12.10;10.68;;;;;;;24.00;59.37;94648.06;4209841;28;20056;-57
2023/06/24 00:28:21;;;;;;;13.45;10.75;;;;;;;23.97;59.92;94645.91;4210073;28;20044;-57
2023/06/24 00:30:23;;;;;;;12.93;11.13;;;;;;;23.94;59.88;94646.41;4210910;28;20043;-57
2023/06/24 00:32:25;;;;;;;12.40;11.02;;;;;;;23.91;59.85;94645.00;4210779;28;20149;-57
2023/06/24 00:34:26;;;;;;;13.77;11.20;;;;;;;23.92;60.16;94646.63;4207977;28;20058;-57
2023/06/24 00:36:28;;;;;;;12.40;11.10;;;;;;;23.90;60.23;94655.97;4210420;28;20530;-57
2023/06/24 00:38:32;;;;;;;13.45;11.45;;;;;;;23.88;60.59;94658.06;4209168;28;20043;-55
2023/06/24 00:40:34;;;;;;;16.17;11.95;;;;;;;23.83;60.86;94661.47;4202383;28;20066;-56
2023/06/24 00:42:36;;;;;;;13.02;11.13;;;;;;;23.81;61.07;94662.75;4205781;28;20676;-54
2023/06/24 00:44:39;;;;;;;16.80;11.68;;;;;;;23.74;61.36;94648.69;4210688;28;20642;-57
2023/06/24 00:46:41;;;;;;;16.35;11.63;;;;;;;23.75;61.44;94647.63;4211245;28;20051;-58
2023/06/24 00:48:42;;;;;;;15.07;11.93;;;;;;;23.71;61.46;94642.78;4210672;28;20044;-58
2023/06/24 00:50:45;;;;;;;16.73;11.57;;;;;;;23.68;61.80;94643.28;4206585;28;20060;-59
2023/06/24 00:52:48;;;;;;;17.52;11.88;;;;;;;23.68;61.55;94639.78;4209519;28;20055;-58
2023/06/24 00:54:50;;;;;;;14.73;12.00;;;;;;;23.64;61.76;94641.31;4211061;28;20516;-63
2023/06/24 00:56:54;;;;;;;15.63;12.02;;;;;;;23.62;61.73;94641.56;4207699;28;20052;-59
2023/06/24 00:58:58;;;;;;;20.83;12.18;;;;;;;23.64;61.96;94630.59;4208376;28;20592;-61
2023/06/24 01:01:01;;;;;;;16.05;11.15;;;;;;;23.66;62.07;94636.53;4207473;28;20051;-62
2023/06/24 01:03:03;;;;;;;14.60;11.70;;;;;;;23.67;61.80;94630.16;4200680;28;20463;-59
2023/06/24 01:05:06;;;;;;;16.10;12.27;;;;;;;23.68;61.78;94629.06;4209186;28;20278;-59
2023/06/24 01:07:08;;;;;;;13.97;12.03;;;;;;;23.67;61.91;94635.50;4206624;28;20426;-55
2023/06/24 01:09:10;;;;;;;16.02;12.30;;;;;;;23.66;61.71;94634.69;4209784;28;20497;-58
2023/06/24 01:11:12;;;;;;;14.13;11.85;;;;;;;23.66;61.98;94636.53;4209337;28;20058;-58
2023/06/24 01:13:13;;;;;;;14.15;12.05;;;;;;;23.62;61.77;94633.53;4208991;28;20044;-57
2023/06/24 01:15:17;;;;;;;16.60;11.73;;;;;;;23.58;62.06;94631.59;4200243;28;20105;-59
2023/06/24 01:17:45;;;;;;;;;;;;;;;23.50;62.21;94622.09;4211077;28;20048;-58
2023/06/24 01:20:04;;;;;;;14.98;11.95;;;;;;;23.45;62.30;94619.34;4206696;28;20027;-58
2023/06/24 01:22:11;;;;;;;17.30;12.23;;;;;;;23.42;62.47;94617.94;4203203;28;20051;-56
2023/06/24 01:24:47;;;;;;;14.90;11.65;;;;;;;23.39;62.76;94617.63;4198272;28;20478;-59
2023/06/24 01:27:08;;;;;;;16.02;11.30;;;;;;;23.38;62.31;94621.34;4195204;28;20450;-58
2023/06/24 01:29:22;;;;;;;13.18;11.32;;;;;;;23.40;61.99;94619.25;4207984;28;20162;-59
2023/06/24 01:31:38;;;;;;;14.95;11.02;;;;;;;23.39;62.21;94622.97;4201301;28;20075;-59
2023/06/24 01:33:50;;;;;;;12.88;11.57;;;;;;;23.36;62.18;94626.94;4199200;28;20142;-57
2023/06/24 01:35:53;;;;;;;12.00;10.43;;;;;;;23.34;62.10;94629.06;4208170;28;20101;-58
2023/06/24 01:37:56;;;;;;;12.85;11.50;;;;;;;23.33;62.03;94637.31;4206211;28;20465;-59
2023/06/24 01:40:06;;;;;;;15.32;12.50;;;;;;;;;;4205131;28;20511;-58
2023/06/24 01:42:10;;;;;;;14.23;11.45;;;;;;;23.30;61.98;94647.41;4204902;28;20469;-58
2023/06/24 01:44:14;;;;;;;18.08;12.45;;;;;;;23.25;62.38;94652.69;4210030;28;20052;-58
2023/06/24 01:46:17;;;;;;;14.07;12.10;;;;;;;23.20;62.83;94652.56;4205232;28;20059;-60
2023/06/24 01:48:25;;;;;;;21.38;12.38;;;;;;;22.95;63.61;94655.56;4201321;28;20129;-59
2023/06/24 01:50:27;;;;;;;14.63;12.15;;;;;;;22.75;64.12;94653.28;4208694;28;20044;-59
2023/06/24 01:52:30;;;;;;;20.65;12.57;;;;;;;22.71;64.78;94665.47;4195656;28;20040;-59
2023/06/24 01:54:33;;;;;;;17.13;12.67;;;;;;;22.74;64.71;94664.22;4204863;28;20133;-59
2023/06/24 01:56:36;;;;;;;18.08;13.88;;;;;;;22.67;64.53;94665.16;4196023;28;20286;-60
2023/06/24 01:58:39;;;;;;;22.80;13.20;;;;;;;22.69;64.40;94659.53;4201690;28;20048;-58
2023/06/24 02:00:40;;;;;;;15.88;13.20;;;;;;;22.69;64.50;94659.53;4206201;28;20109;-60
2023/06/24 02:02:43;;;;;;;15.90;12.27;;;;;;;22.61;64.67;94658.06;4207533;28;20056;-57
2023/06/24 02:04:45;;;;;;;15.95;12.25;;;;;;;22.61;65.31;94665.28;4208764;28;20117;-57
2023/06/24 02:06:47;;;;;;;16.52;12.43;;;;;;;22.67;65.00;94680.31;4203839;28;20056;-58
2023/06/24 02:08:51;;;;;;;15.23;12.40;;;;;;;22.68;64.69;94674.75;4208187;28;20042;-58
2023/06/24 02:10:54;;;;;;;16.85;12.95;;;;;;;22.73;64.64;94673.25;4207242;28;20113;-60
2023/06/24 02:12:56;;;;;;;14.90;12.52;;;;;;;22.71;64.75;94676.16;4195423;28;20056;-58
2023/06/24 02:14:58;;;;;;;18.20;12.88;;;;;;;22.69;64.67;94672.91;4208435;28;20078;-59
2023/06/24 02:17:01;;;;;;;16.77;12.82;;;;;;;22.74;64.92;94674.88;4207411;28;20136;-58
2023/06/24 02:19:04;;;;;;;14.63;12.80;;;;;;;22.72;64.32;94674.31;4210458;28;20044;-59
2023/06/24 02:21:06;;;;;;;23.65;13.02;;;;;;;22.73;64.58;94670.56;4212063;28;20132;-58
2023/06/24 02:23:09;;;;;;;18.90;13.73;;;;;;;22.59;64.85;94673.50;4210926;28;20120;-57
2023/06/24 02:25:11;;;;;;;18.73;13.82;;;;;;;22.40;65.38;94672.81;4210230;28;20058;-59
2023/06/24 02:27:13;;;;;;;16.50;12.93;;;;;;;22.28;66.08;94682.69;4208740;28;20615;-58
2023/06/24 02:29:15;;;;;;;21.77;13.65;;;;;;;22.28;65.89;94688.03;4213141;28;20052;-56
2023/06/24 02:31:17;;;;;;;14.48;12.52;;;;;;;22.25;65.98;94696.50;4208572;28;20048;-58
2023/06/24 02:33:19;;;;;;;19.08;13.00;;;;;;;22.23;65.53;94701.25;4208483;28;20044;-57
2023/06/24 02:35:21;;;;;;;20.25;13.27;;;;;;;22.15;65.94;94698.91;4208328;28;20048;-56
2023/06/24 02:37:22;;;;;;;16.00;13.98;;;;;;;22.10;66.13;94707.59;4212455;28;20441;-57
2023/06/24 02:39:24;;;;;;;24.25;13.70;;;;;;;21.84;67.15;94708.84;4212608;28;20046;-59
2023/06/24 02:41:26;;;;;;;18.88;14.70;;;;;;;21.63;67.89;94710.97;4212540;28;20047;-58
2023/06/24 02:43:27;;;;;;;18.92;14.30;;;;;;;21.56;67.98;94715.59;4212178;28;20054;-58
2023/06/24 02:45:29;;;;;;;20.55;14.43;;;;;;;21.32;69.16;94720.00;4213180;28;20064;-58
2023/06/24 02:47:32;;;;;;;20.23;13.70;;;;;;;21.20;69.23;94717.28;4211767;28;20052;-59
2023/06/24 02:49:35;;;;;;;18.20;15.17;;;;;;;21.28;69.41;94710.81;4211787;28;20589;-61
2023/06/24 02:51:38;;;;;;;18.17;14.90;;;;;;;21.42;69.15;94716.81;4212224;28;20048;-59
2023/06/24 02:53:40;;;;;;;16.70;14.38;;;;;;;21.60;68.74;94707.97;4211268;28;20048;-57
2023/06/24 02:55:43;;;;;;;28.33;19.67;;;;;;;21.74;68.12;94713.91;4210929;28;20106;-58
2023/06/24 02:57:45;;;;;;;17.73;15.13;;;;;;;21.67;68.13;94714.00;4212837;28;20066;-58
2023/06/24 02:59:47;;;;;;;19.23;14.63;;;;;;;21.54;68.05;94725.66;4211579;28;20048;-57
2023/06/24 03:01:50;;;;;;;19.70;14.55;;;;;;;21.34;68.98;94728.59;4210696;28;20048;-58
2023/06/24 03:03:56;;;;;;;17.58;14.27;;;;;;;21.44;69.07;94731.53;4212419;28;20101;-59
2023/06/24 03:05:58;;;;;;;23.15;16.70;;;;;;;21.57;68.38;94725.19;4212300;28;20500;-58
2023/06/24 03:08:00;;;;;;;15.93;14.10;;;;;;;21.61;68.10;94713.06;4210208;28;20134;-56
2023/06/24 03:10:02;;;;;;;16.52;14.45;;;;;;;21.51;68.61;94725.31;4211915;28;20080;-59
2023/06/24 03:12:05;;;;;;;19.67;16.67;;;;;;;21.59;68.54;94714.31;4212740;28;20058;-57
2023/06/24 03:14:08;;;;;;;25.85;19.77;;;;;;;21.73;68.24;94717.63;4212425;28;20054;-57
2023/06/24 03:16:12;;;;;;;19.75;17.25;;;;;;;21.88;67.85;94718.81;4211401;28;20044;-58
2023/06/24 03:18:13;;;;;;;20.73;14.68;;;;;;;22.03;67.42;94723.72;4212332;28;20040;-58
2023/06/24 03:20:15;;;;;;;21.10;17.13;;;;;;;22.14;66.88;94726.63;4212252;28;20052;-59
2023/06/24 03:22:17;;;;;;;27.30;17.70;;;;;;;22.26;66.76;94716.78;4211042;28;20097;-58
2023/06/24 03:24:18;;;;;;;24.90;15.38;;;;;;;22.39;66.46;94732.59;4211199;28;20078;-60
2023/06/24 03:26:20;;;;;;;17.33;13.30;;;;;;;22.46;65.81;94719.94;4211683;28;20048;-59
2023/06/24 03:28:22;;;;;;;20.75;14.77;;;;;;;22.54;65.74;94732.13;4212513;28;20171;-57
2023/06/24 03:30:23;;;;;;;16.80;13.93;;;;;;;22.59;65.76;94736.78;4211504;28;20482;-56
2023/06/24 03:32:25;;;;;;;14.18;12.68;;;;;;;22.69;65.09;94745.00;4211355;28;20054;-57
2023/06/24 03:34:27;;;;;;;16.50;12.88;;;;;;;22.78;65.01;94742.78;4212314;28;20375;-58
2023/06/24 03:36:28;;;;;;;17.67;12.85;;;;;;;22.86;64.79;94745.91;4211260;28;20048;-59
2023/06/24 03:38:31;;;;;;;18.55;13.57;;;;;;;22.95;64.59;94746.38;4210259;28;20062;-59
2023/06/24 03:40:33;;;;;;;14.90;12.15;;;;;;;23.03;64.42;94751.38;4199606;28;20051;-59
2023/06/24 03:42:34;;;;;;;17.70;13.10;;;;;;;23.09;64.41;94753.09;4210465;28;20553;-57
2023/06/24 03:44:36;;;;;;;14.98;13.32;;;;;;;23.11;63.81;94755.56;4211287;28;20054;-59
2023/06/24 03:46:38;;;;;;;17.63;13.60;;;;;;;23.17;63.73;94757.28;4211673;28;20073;-58
2023/06/24 03:48:40;;;;;;;15.35;13.05;;;;;;;23.20;63.58;94754.13;4212097;28;20051;-59
2023/06/24 03:50:41;;;;;;;14.73;13.20;;;;;;;23.25;63.77;94761.44;4209475;28;20227;-57
2023/06/24 03:52:46;;;;;;;15.18;12.80;;;;;;;23.30;63.43;94764.22;4211117;28;20054;-58
2023/06/24 03:54:48;;;;;;;18.40;14.43;;;;;;;23.34;63.05;94761.88;4211547;28;20430;-57
2023/06/24 03:56:50;;;;;;;16.33;12.60;;;;;;;23.31;62.82;94760.47;4198270;28;20048;-59
2023/06/24 03:58:52;;;;;;;15.25;12.90;;;;;;;23.35;62.80;94758.16;4198340;28;20047;-59
2023/06/24 04:00:56;;;;;;;18.50;13.15;;;;;;;23.38;62.37;94760.34;4205010;28;20044;-59
2023/06/24 04:03:01;;;;;;;18.52;13.73;;;;;;;23.44;62.57;94759.41;4205698;28;20048;-60
2023/06/24 04:05:03;;;;;;;16.88;12.77;;;;;;;23.49;62.59;94762.19;4210931;28;20565;-61
2023/06/24 04:07:05;;;;;;;15.45;13.23;;;;;;;23.55;62.51;94765.75;4209229;28;20040;-58
2023/06/24 04:09:08;;;;;;;17.27;13.90;;;;;;;23.58;61.86;94771.44;4204788;28;20053;-57
2023/06/24 04:11:11;;;;;;;15.13;13.50;;;;;;;23.58;61.70;94771.44;4206669;28;20055;-57
2023/06/24 04:13:13;;;;;;;14.40;12.90;;;;;;;23.60;61.86;94772.03;4197503;28;20098;-58
2023/06/24 04:15:14;;;;;;;15.18;13.30;;;;;;;23.61;61.54;94765.63;4209910;28;20048;-59
2023/06/24 04:17:16;;;;;;;15.18;13.23;;;;;;;23.66;61.57;94765.72;4195085;28;20417;-60
2023/06/24 04:19:18;;;;;;;18.13;13.27;;;;;;;23.73;61.30;94759.44;4208112;28;20459;-58
2023/06/24 04:21:19;;;;;;;14.38;12.57;;;;;;;23.74;61.63;94753.81;4198511;28;20044;-60
2023/06/24 04:23:21;;;;;;;16.88;12.45;;;;;;;23.81;61.46;94748.34;4210522;28;20105;-56
2023/06/24 04:25:23;;;;;;;16.73;13.35;;;;;;;23.86;61.71;94749.25;4211123;28;20054;-59
2023/06/24 04:27:24;;;;;;;15.55;13.45;;;;;;;23.86;61.72;94745.78;4209892;28;20067;-59
2023/06/24 04:29:26;;;;;;;16.40;13.38;;;;;;;23.90;61.53;94744.25;4211479;28;20044;-59
2023/06/24 04:31:28;;;;;;;17.45;14.20;;;;;;;23.95;61.44;94741.66;4210843;28;20044;-59
2023/06/24 04:33:29;;;;;;;19.35;13.95;;;;;;;23.95;61.14;94743.53;4211043;28;20320;-58
2023/06/24 04:35:31;;;;;;;20.50;14.40;;;;;;;23.93;60.99;94749.09;4210109;28;20135;-60
2023/06/24 04:37:33;;;;;;;15.73;13.50;;;;;;;23.93;60.81;94743.75;4209466;28;20055;-59
2023/06/24 04:39:35;;;;;;;16.63;13.57;;;;;;;23.91;60.85;94745.84;4210942;28;20063;-60
2023/06/24 04:41:37;;;;;;;19.23;14.20;;;;;;;23.93;60.73;94746.44;4198279;28;20044;-60
2023/06/24 04:43:38;;;;;;;18.45;13.45;;;;;;;23.95;60.65;94744.31;4197997;28;20048;-58
2023/06/24 04:45:40;;;;;;;20.05;12.95;;;;;;;24.02;60.66;94742.28;4198649;28;20055;-60
2023/06/24 04:47:42;;;;;;;16.33;13.13;;;;;;;24.08;60.51;94748.56;4197322;28;20109;-60
2023/06/24 04:49:44;;;;;;;17.40;13.07;;;;;;;24.11;60.33;94754.25;4197953;28;20576;-61
2023/06/24 04:51:45;;;;;;;14.65;12.70;;;;;;;24.17;60.18;94752.44;4205315;28;20052;-61
2023/06/24 04:53:47;;;;;;;15.80;13.27;;;;;;;24.20;60.01;94759.19;4200046;28;20056;-59
2023/06/24 04:55:49;;;;;;;15.25;13.63;;;;;;;24.25;59.69;94757.41;4200036;28;20498;-59
2023/06/24 04:57:50;;;;;;;18.35;13.70;;;;;;;24.31;59.58;94758.31;4198078;28;20094;-59
2023/06/24 04:59:52;;;;;;;14.55;13.02;;;;;;;24.36;59.46;94760.25;4198586;28;20506;-61
2023/06/24 05:01:54;;;;;;;15.00;13.15;;;;;;;24.40;59.38;94754.16;4209591;28;20111;-61
2023/06/24 05:03:55;;;;;;;22.58;13.48;;;;;;;24.33;59.15;94754.31;4201319;28;20133;-60
2023/06/24 05:05:57;;;;;;;18.42;13.20;;;;;;;24.27;59.60;94763.34;4205497;28;20079;-58
2023/06/24 05:07:59;;;;;;;17.35;14.38;;;;;;;24.14;60.43;94757.50;4196691;28;20048;-57
2023/06/24 05:10:00;;;;;;;16.05;13.95;;;;;;;24.00;60.35;94760.47;4210092;28;20387;-59
2023/06/24 05:12:02;;;;;;;16.10;13.90;;;;;;;23.90;61.57;94763.78;4205304;28;20044;-57
2023/06/24 05:14:04;;;;;;;18.10;13.48;;;;;;;23.98;61.71;94756.41;4204926;28;20048;-59
2023/06/24 05:16:06;;;;;;;15.55;13.10;;;;;;;24.11;61.10;94758.75;4198092;28;20062;-61
2023/06/24 05:18:07;;;;;;;15.50;13.77;;;;;;;24.23;60.90;94762.19;4195324;28;20139;-56
2023/06/24 05:20:10;;;;;;;20.20;14.68;;;;;;;24.24;60.57;94753.13;4195821;28;20128;-59
2023/06/24 05:22:11;;;;;;;18.48;13.93;;;;;;;24.30;60.39;94745.97;4194894;28;20051;-58
2023/06/24 05:24:13;;;;;;;16.55;13.25;;;;;;;24.36;59.74;94754.91;4196568;28;20469;-60
2023/06/24 05:26:15;;;;;;;16.67;13.27;;;;;;;24.44;59.74;94747.28;4210246;28;20040;-57
2023/06/24 05:28:17;;;;;;;16.05;13.95;;;;;;;24.56;59.44;94735.69;4203632;28;20267;-57
2023/06/24 05:30:18;;;;;;;15.73;13.88;;;;;;;24.70;58.93;94739.66;4194621;28;20097;-55
2023/06/24 05:32:20;;;;;;;20.45;13.32;;;;;;;24.80;58.74;94734.44;4207116;28;20048;-60
2023/06/24 05:34:22;;;;;;;16.38;13.27;;;;;;;24.87;58.53;94737.75;4198988;28;20051;-56
2023/06/24 05:36:23;;;;;;;15.35;13.13;;;;;;;24.88;58.59;94749.25;4210206;28;20106;-57
2023/06/24 05:38:25;;;;;;;19.40;13.50;;;;;;;24.84;58.61;94748.94;4210175;28;20481;-58
2023/06/24 05:40:27;;;;;;;17.73;14.30;;;;;;;24.61;59.07;94746.44;4209319;28;20122;-58
2023/06/24 05:42:28;;;;;;;21.77;14.02;;;;;;;24.61;59.16;94743.78;4196294;28;20049;-55
2023/06/24 05:44:31;;;;;;;16.73;14.63;;;;;;;24.63;59.58;94752.38;4209747;28;20072;-57
2023/06/24 05:46:33;;;;;;;20.92;13.88;;;;;;;24.41;60.60;94750.41;4210782;28;20056;-59
2023/06/24 05:48:34;;;;;;;20.70;15.32;;;;;;;24.51;60.07;94755.16;4210039;28;20083;-59
2023/06/24 05:50:36;;;;;;;20.10;13.38;;;;;;;24.65;59.38;94743.06;4208751;28;20095;-58
2023/06/24 05:52:38;;;;;;;17.80;13.40;;;;;;;24.80;59.44;94738.97;4209941;28;20052;-56
2023/06/24 05:54:39;;;;;;;15.52;13.07;;;;;;;24.92;59.28;94740.47;4213496;28;20538;-57
2023/06/24 05:56:41;;;;;;;18.90;14.18;;;;;;;25.04;59.25;94739.56;4213329;28;20048;-60
2023/06/24 05:58:43;;;;;;;16.17;13.15;;;;;;;25.11;59.02;94732.94;4212492;28;20131;-59
2023/06/24 06:00:44;;;;;;;16.38;13.45;;;;;;;25.19;58.41;94729.03;4213347;28;20044;-60
2023/06/24 06:02:46;;;;;;;17.40;12.85;;;;;;;25.04;58.35;94731.53;4213874;28;20123;-61
2023/06/24 06:04:49;;;;;;;18.05;13.32;;;;;;;24.91;58.69;94728.16;4214277;28;20048;-58
2023/06/24 06:06:51;;;;;;;18.02;13.30;;;;;;;24.83;58.62;94728.56;4212145;28;20109;-57
2023/06/24 06:08:53;;;;;;;15.80;13.30;;;;;;;24.84;59.27;94732.84;4213022;28;20052;-59
2023/06/24 06:10:54;;;;;;;15.60;13.48;;;;;;;24.71;58.80;94725.97;4213069;28;20040;-56
2023/06/24 06:12:56;;;;;;;16.73;13.20;;;;;;;24.73;59.61;94723.88;4212315;28;20133;-55
2023/06/24 06:14:58;;;;;;;17.30;12.52;;;;;;;24.92;59.52;94721.72;4213227;28;20048;-56
2023/06/24 06:16:59;;;;;;;16.42;12.98;;;;;;;24.87;58.53;94721.66;4212195;28;20048;-59
2023/06/24 06:19:01;;;;;;;15.50;13.80;;;;;;;24.71;58.71;94735.91;4211867;28;20070;-59
2023/06/24 06:21:03;;;;;;;15.40;11.60;;;;;;;24.79;59.01;94729.31;4210628;28;20409;-59
2023/06/24 06:23:04;;;;;;;13.75;11.77;;;;;;;24.93;58.67;94734.06;4212142;28;20401;-58
2023/06/24 06:25:07;;;;;;;21.70;11.85;;;;;;;24.61;58.54;94733.06;4212067;28;20451;-57
2023/06/24 06:27:13;;;;;;;16.63;12.43;;;;;;;24.69;58.04;94733.47;4212509;28;20052;-59
2023/06/24 06:29:14;;;;;;;16.15;11.15;;;;;;;24.71;57.54;94730.53;4210800;28;20139;-58
2023/06/24 06:31:16;;;;;;;13.88;11.40;;;;;;;24.82;57.87;94732.28;4211327;28;20439;-60
2023/06/24 06:33:18;;;;;;;13.20;11.80;;;;;;;25.07;57.55;94744.41;4213298;28;20138;-60
2023/06/24 06:35:19;;;;;;;12.93;11.52;;;;;;;25.27;57.13;94728.59;4213173;28;20101;-58
2023/06/24 06:37:21;;;;;;;14.85;10.77;;;;;;;25.50;56.58;94734.78;4211295;28;20052;-58
2023/06/24 06:39:23;;;;;;;12.13;10.23;;;;;;;25.70;56.04;94736.84;4211168;28;20051;-56
2023/06/24 06:41:24;;;;;;;14.93;11.40;;;;;;;25.77;56.04;94737.50;4201094;28;20048;-58
2023/06/24 06:43:26;;;;;;;13.48;11.00;;;;;;;25.89;55.99;94743.53;4213298;28;20048;-59
2023/06/24 06:45:28;;;;;;;13.68;11.98;;;;;;;25.96;55.62;94735.25;4213315;28;20554;-56
2023/06/24 06:47:32;;;;;;;15.65;11.65;;;;;;;26.07;54.85;94741.53;4210093;28;20056;-57
2023/06/24 06:49:34;;;;;;;15.20;12.68;;;;;;;25.99;54.67;94753.56;4202418;28;20597;-54
2023/06/24 06:51:36;;;;;;;16.98;11.88;;;;;;;25.90;54.64;94753.22;4211645;28;20135;-55
2023/06/24 06:53:38;;;;;;;20.38;14.25;;;;;;;25.89;54.21;94750.78;4211979;28;20063;-60
2023/06/24 06:55:39;;;;;;;17.95;13.20;;;;;;;25.79;54.82;94742.56;4211643;28;20508;-61
2023/06/24 06:57:41;;;;;;;15.90;12.18;;;;;;;25.66;55.15;94741.94;4212655;28;20044;-61
2023/06/24 06:59:43;;;;;;;16.55;12.70;;;;;;;25.78;54.95;94732.91;4213433;28;20047;-57
2023/06/24 07:01:45;;;;;;;14.55;11.85;;;;;;;25.84;54.45;94737.28;4212438;28;20064;-61
2023/06/24 07:03:46;;;;;;;15.52;11.85;;;;;;;25.67;54.68;94740.88;4212236;28;20060;-59
2023/06/24 07:05:48;;;;;;;15.77;12.10;;;;;;;25.66;55.19;94741.09;4210769;28;20059;-60
2023/06/24 07:07:50;;;;;;;17.35;13.18;;;;;;;25.77;55.27;94742.03;4212060;28;20052;-60
2023/06/24 07:09:51;;;;;;;18.02;12.30;;;;;;;25.92;55.55;94739.50;4209547;28;20429;-58
2023/06/24 07:11:53;;;;;;;18.52;12.05;;;;;;;26.13;54.85;94740.50;4211697;28;20379;-59
2023/06/24 07:13:55;;;;;;;15.02;12.05;;;;;;;26.33;54.65;94751.44;4211787;28;20055;-59
2023/06/24 07:15:56;;;;;;;18.38;12.75;;;;;;;26.53;53.91;94744.59;4200848;28;20049;-59
2023/06/24 07:17:58;;;;;;;18.70;14.05;;;;;;;26.60;53.62;94749.78;4211528;28;20166;-57
2023/06/24 07:20:00;;;;;;;14.70;11.60;;;;;;;26.62;52.86;94747.66;4212146;28;20135;-56
2023/06/24 07:22:02;;;;;;;20.65;13.13;;;;;;;26.76;53.12;94741.56;4211867;28;20058;-57
2023/06/24 07:24:04;;;;;;;16.27;12.13;;;;;;;26.91;52.26;94735.47;4211467;28;20101;-58
2023/06/24 07:26:05;;;;;;;13.57;12.05;;;;;;;27.05;52.23;94740.38;4211463;28;20055;-62
2023/06/24 07:28:07;;;;;;;15.38;11.90;;;;;;;27.16;52.49;94744.72;4212589;28;20052;-56
2023/06/24 07:30:09;;;;;;;14.23;12.60;;;;;;;27.23;52.76;94737.25;4212723;28;20085;-59
2023/06/24 07:32:11;;;;;;;16.00;13.07;;;;;;;27.26;52.41;94736.75;4211909;28;20052;-57
2023/06/24 07:34:13;;;;;;;17.33;12.40;;;;;;;27.36;52.74;94734.09;4212790;28;20044;-58
2023/06/24 07:36:14;;;;;;;14.48;12.05;;;;;;;27.46;52.45;94733.31;4211343;28;20050;-59
2023/06/24 07:38:16;;;;;;;16.73;12.20;;;;;;;27.58;52.07;94739.28;4212317;28;20047;-58
2023/06/24 07:40:18;;;;;;;14.45;10.80;;;;;;;27.62;51.37;94731.50;4204849;28;20048;-59
2023/06/24 07:42:19;;;;;;;14.45;12.13;;;;;;;27.68;50.58;94734.97;4208921;28;20135;-58
2023/06/24 07:44:21;;;;;;;14.35;10.70;;;;;;;27.07;50.84;94733.66;4211318;28;20444;-62
2023/06/24 07:46:23;;;;;;;18.52;12.00;;;;;;;26.78;50.90;94730.56;4212236;28;20078;-56
2023/06/24 07:48:25;;;;;;;13.38;11.80;;;;;;;26.51;51.58;94731.41;4210369;28;20131;-58
2023/06/24 07:50:26;;;;;;;14.38;11.82;;;;;;;26.64;51.90;94732.06;4210117;28;20048;-58
2023/06/24 07:52:28;;;;;;;16.08;12.68;;;;;;;26.87;52.79;94734.38;4198230;28;20044;-56
2023/06/24 07:54:30;;;;;;;16.85;11.07;;;;;;;27.08;51.84;94734.47;4211350;28;20052;-60
2023/06/24 07:56:32;;;;;;;16.50;12.38;;;;;;;26.99;51.01;94734.16;4211725;28;20583;-59
2023/06/24 07:58:34;;;;;;;19.73;12.93;;;;;;;26.90;51.53;94736.53;4198627;28;20056;-60
2023/06/24 08:00:36;;;;;;;15.13;12.30;;;;;;;26.84;52.02;94742.13;4212444;28;20040;-57
2023/06/24 08:02:41;;;;;;;17.60;13.27;;;;;;;26.96;52.25;94746.25;4206250;28;20044;-61
2023/06/24 08:04:43;;;;;;;18.77;11.85;;;;;;;27.01;52.83;94744.66;4211988;28;20680;-61
2023/06/24 08:06:45;;;;;;;15.02;11.38;;;;;;;27.09;52.62;94741.47;4208859;28;20055;-58
2023/06/24 08:08:46;;;;;;;15.02;11.52;;;;;;;27.12;51.64;94741.75;4210011;28;20123;-58
2023/06/24 08:10:48;;;;;;;16.65;11.23;;;;;;;27.00;51.57;94740.34;4209962;28;20055;-59
2023/06/24 08:12:50;;;;;;;17.13;11.98;;;;;;;26.84;51.89;94739.44;4210246;28;20627;-56
2023/06/24 08:14:51;;;;;;;14.93;12.52;;;;;;;26.64;52.32;94742.81;4208169;28;21095;-60
2023/06/24 08:16:53;;;;;;;13.48;12.15;;;;;;;26.83;53.35;94740.53;4201476;28;20494;-59
2023/06/24 08:18:55;;;;;;;16.55;12.13;;;;;;;27.14;53.02;94734.22;4211355;28;20084;-58
2023/06/24 08:20:57;;;;;;;13.48;12.07;;;;;;;27.46;52.31;94730.63;4210040;28;20062;-60
2023/06/24 08:22:58;;;;;;;14.77;12.25;;;;;;;27.42;51.63;94732.22;4199219;28;20048;-59
2023/06/24 08:25:00;;;;;;;16.52;12.65;;;;;;;27.21;51.93;94734.00;4210513;28;20058;-59
2023/06/24 08:27:04;;;;;;;15.70;12.13;;;;;;;27.29;52.41;94727.31;4211114;28;20051;-59
2023/06/24 08:29:07;;;;;;;14.23;12.80;;;;;;;27.08;51.50;94731.78;4210337;28;20127;-58
2023/06/24 08:31:08;;;;;;;16.95;12.57;;;;;;;27.10;52.56;94722.41;4210891;28;20494;-59
2023/06/24 08:33:10;;;;;;;18.02;12.52;;;;;;;27.24;52.80;94730.00;4211256;28;20101;-60
2023/06/24 08:35:12;;;;;;;17.00;12.45;;;;;;;27.23;52.45;94733.75;4211869;28;20127;-57
2023/06/24 08:37:13;;;;;;;18.02;11.95;;;;;;;27.35;51.87;94724.38;4210195;28;20116;-56
2023/06/24 08:39:15;;;;;;;16.20;13.23;;;;;;;27.18;52.02;94721.88;4209312;28;20056;-59
2023/06/24 08:41:17;;;;;;;17.45;11.70;;;;;;;27.38;52.03;94723.06;4211310;28;20609;-58
2023/06/24 08:43:19;;;;;;;12.55;11.25;;;;;;;27.27;52.01;94719.50;4211407;28;20052;-57
2023/06/24 08:45:20;;;;;;;13.73;11.13;;;;;;;27.47;51.97;94715.28;4211302;28;20073;-60
2023/06/24 08:47:24;;;;;;;16.33;12.57;;;;;;;27.58;52.23;94712.38;4210673;28;20066;-60
2023/06/24 08:49:29;;;;;;;15.50;12.27;;;;;;;27.83;52.61;94710.78;4211399;28;20054;-59
2023/06/24 08:51:31;;;;;;;13.70;11.27;;;;;;;28.05;51.11;94715.97;4210705;28;20043;-56
2023/06/24 08:53:33;;;;;;;19.55;11.98;;;;;;;28.29;51.12;94705.47;4209091;28;20074;-59
2023/06/24 08:55:39;;;;;;;15.00;12.10;;;;;;;28.51;50.01;94704.41;4208544;28;20063;-57
2023/06/24 08:57:41;;;;;;;17.02;12.20;;;;;;;28.56;49.95;94707.09;4210925;28;20048;-59
2023/06/24 08:59:43;;;;;;;16.42;12.38;;;;;;;28.33;49.33;94705.72;4211267;28;20055;-56
2023/06/24 09:01:46;;;;;;;14.50;12.80;;;;;;;28.08;50.25;94709.25;4209714;28;20068;-61
2023/06/24 09:03:48;;;;;;;15.68;11.65;;;;;;;28.09;50.77;94714.38;4210708;28;20577;-58
2023/06/24 09:05:49;;;;;;;13.70;11.88;;;;;;;28.27;50.42;94710.31;4210134;28;20398;-60
2023/06/24 09:07:51;;;;;;;18.67;12.95;;;;;;;28.47;50.17;94700.59;4210481;28;20052;-58
2023/06/24 09:09:53;;;;;;;13.10;11.32;;;;;;;28.71;50.43;94707.06;4209095;28;20048;-60
2023/06/24 09:11:57;;;;;;;14.20;11.18;;;;;;;28.78;49.27;94707.59;4198638;28;20044;-58
2023/06/24 09:14:00;;;;;;;12.07;10.70;;;;;;;28.59;48.53;94707.34;4202969;28;20489;-59
2023/06/24 09:16:12;;;;;;;13.13;11.68;;;;;;;28.57;48.80;94704.13;4196301;28;20460;-59
2023/06/24 09:18:17;;;;;;;11.70;10.60;;;;;;;28.64;49.04;94695.75;4196261;28;20052;-60
2023/06/24 09:20:21;;;;;;;21.20;11.45;;;;;;;28.68;48.34;94701.41;4196236;28;20785;-60
2023/06/24 09:22:28;;;;;;;15.65;11.05;;;;;;;28.88;48.73;94706.75;4206700;28;20056;-59
2023/06/24 09:24:31;;;;;;;12.32;11.13;;;;;;;28.96;48.33;94700.78;4194527;28;20436;-59
2023/06/24 09:26:33;;;;;;;14.23;11.18;;;;;;;29.11;48.72;94712.66;4194728;28;20071;-60